Time;durP1;ratioP1;P1;durP2;ratioP2;P2;SDS_P1;SDS_P2;PMS_P1;PMS_P2;Temp;Humidity;BMP_temperature;BMP_pressure;BME280_temperature;BME280_humidity;BME280_pressure;Samples;Min_cycle;Max_cycle;Signal;HPM_P1;HPM_P2
2022/05/06 00:00:10;;;;;;;19.03;13.90;;;16.10;81.00;;;;;;7367919;19;20913;-46
2022/05/06 00:02:40;;;;;;;23.50;15.30;;;16.20;81.00;;;;;;7375437;19;20416;-47
2022/05/06 00:05:12;;;;;;;23.27;14.03;;;16.20;80.00;;;;;;7372871;19;20372;-46
2022/05/06 00:07:45;;;;;;;21.53;13.70;;;16.30;80.10;;;;;;7372543;19;20444;-46
2022/05/06 00:10:15;;;;;;;20.87;12.90;;;16.30;79.80;;;;;;7373393;19;20386;-46
2022/05/06 00:12:46;;;;;;;20.03;14.17;;;16.30;79.40;;;;;;7368565;19;20377;-46
2022/05/06 00:15:16;;;;;;;20.07;15.07;;;16.40;79.40;;;;;;7371994;19;20407;-46
2022/05/06 00:17:48;;;;;;;21.20;14.77;;;16.40;79.40;;;;;;7372878;19;20408;-47
2022/05/06 00:20:20;;;;;;;21.30;14.70;;;16.50;78.90;;;;;;7368500;19;20368;-47
2022/05/06 00:22:57;;;;;;;18.50;12.83;;;16.40;78.90;;;;;;7370519;19;20392;-49
2022/05/06 00:25:28;;;;;;;18.43;13.20;;;16.40;79.40;;;;;;7371550;19;20364;-46
2022/05/06 00:27:57;;;;;;;20.13;13.33;;;16.30;79.30;;;;;;7371370;19;20978;-47
2022/05/06 00:30:29;;;;;;;22.70;15.00;;;16.30;78.30;;;;;;7367942;19;21279;-47
2022/05/06 00:33:05;;;;;;;25.40;14.23;;;16.30;78.70;;;;;;7370956;19;20412;-47
2022/05/06 00:35:34;;;;;;;26.97;14.50;;;16.40;78.50;;;;;;7371889;19;20819;-47
2022/05/06 00:38:07;;;;;;;21.83;13.93;;;16.40;78.30;;;;;;7368489;19;20414;-47
2022/05/06 00:40:36;;;;;;;22.73;14.87;;;16.50;78.40;;;;;;7368059;19;21090;-48
2022/05/06 00:43:06;;;;;;;21.70;13.70;;;16.30;79.10;;;;;;7367214;19;20495;-48
2022/05/06 00:45:47;;;;;;;23.67;13.50;;;16.40;79.20;;;;;;7373587;19;20372;-48
2022/05/06 00:48:19;;;;;;;24.47;15.07;;;16.40;79.20;;;;;;7371053;19;20408;-47
2022/05/06 00:50:49;;;;;;;20.97;13.97;;;16.50;78.60;;;;;;7369829;19;20413;-47
2022/05/06 00:53:23;;;;;;;31.00;15.60;;;16.40;79.10;;;;;;7372007;19;20488;-48
2022/05/06 00:55:56;;;;;;;23.23;15.17;;;16.50;78.30;;;;;;7365912;19;20462;-47
2022/05/06 00:58:30;;;;;;;22.50;14.30;;;16.50;78.60;;;;;;7370707;19;21776;-48
2022/05/06 01:00:59;;;;;;;28.53;15.87;;;16.40;78.30;;;;;;7368893;19;20375;-48
2022/05/06 01:03:29;;;;;;;20.10;13.90;;;16.30;78.60;;;;;;7370851;19;20427;-47
2022/05/06 01:05:59;;;;;;;23.07;13.20;;;16.30;79.40;;;;;;7367017;19;20866;-48
2022/05/06 01:08:33;;;;;;;23.63;15.33;;;16.40;78.60;;;;;;7372103;19;20383;-47
2022/05/06 01:11:05;;;;;;;21.67;14.60;;;16.40;79.00;;;;;;7362950;19;20957;-39
2022/05/06 01:13:41;;;;;;;24.17;15.03;;;16.40;78.70;;;;;;7371544;19;20364;-39
2022/05/06 01:16:14;;;;;;;24.57;14.70;;;16.30;78.40;;;;;;7364927;19;20446;-39
2022/05/06 01:18:52;;;;;;;24.30;15.60;;;16.30;79.10;;;;;;7378101;19;20440;-39
2022/05/06 01:21:28;;;;;;;23.60;15.50;;;16.40;78.90;;;;;;7373230;19;20852;-40
2022/05/06 01:24:00;;;;;;;22.10;16.10;;;16.30;79.10;;;;;;7378157;19;20406;-39
2022/05/06 01:26:55;;;;;;;25.03;15.33;;;16.30;79.30;;;;;;7372096;19;20398;-39
2022/05/06 01:29:26;;;;;;;24.97;14.73;;;16.30;78.60;;;;;;7380373;19;20484;-39
2022/05/06 01:31:59;;;;;;;23.27;15.10;;;16.20;79.10;;;;;;7373030;19;20403;-39
2022/05/06 01:34:33;;;;;;;27.90;15.33;;;16.30;78.90;;;;;;7376660;19;20392;-39
2022/05/06 01:37:06;;;;;;;18.00;13.60;;;16.20;79.20;;;;;;7375894;19;20406;-39
2022/05/06 01:39:42;;;;;;;22.80;14.23;;;16.30;79.20;;;;;;7374104;19;20375;-47
2022/05/06 01:42:15;;;;;;;18.13;14.40;;;16.20;79.20;;;;;;7374123;19;20391;-48
2022/05/06 01:44:54;;;;;;;24.97;15.57;;;16.30;79.30;;;;;;7373257;19;20926;-48
2022/05/06 01:47:29;;;;;;;24.53;16.40;;;16.20;79.10;;;;;;7371188;19;20938;-47
2022/05/06 01:50:06;;;;;;;22.30;15.53;;;16.10;80.50;;;;;;7376322;19;20723;-47
2022/05/06 01:52:38;;;;;;;23.93;15.60;;;16.10;80.20;;;;;;7370151;19;20368;-48
2022/05/06 01:55:13;;;;;;;21.47;13.77;;;16.00;80.50;;;;;;7374340;19;20421;-47
2022/05/06 01:58:11;;;;;;;23.97;15.17;;;16.10;80.00;;;;;;7372282;19;20424;-47
2022/05/06 02:00:46;;;;;;;25.70;14.73;;;16.10;79.90;;;;;;7367615;19;20390;-47
2022/05/06 02:06:07;;;;;;;26.80;14.40;;;16.20;79.80;;;;;;7373095;19;20420;-48
2022/05/06 02:08:41;;;;;;;19.23;13.33;;;16.20;79.40;;;;;;7369820;19;20417;-48
2022/05/06 02:11:19;;;;;;;22.80;13.60;;;16.10;79.50;;;;;;7377307;19;20412;-39
2022/05/06 02:13:49;;;;;;;26.67;13.23;;;16.30;79.60;;;;;;7373516;19;20383;-39
2022/05/06 02:16:53;;;;;;;19.57;13.17;;;16.30;79.50;;;;;;7371765;19;20419;-39
2022/05/06 02:19:44;;;;;;;18.80;13.90;;;16.30;79.10;;;;;;7367872;19;20488;-39
2022/05/06 02:22:32;;;;;;;21.43;13.33;;;16.30;78.80;;;;;;7374585;19;20419;-39
2022/05/06 02:25:20;;;;;;;19.43;12.87;;;16.30;79.00;;;;;;7372337;19;20408;-40
2022/05/06 02:27:59;;;;;;;17.93;12.50;;;16.30;79.10;;;;;;7371501;19;20371;-39
2022/05/06 02:33:23;;;;;;;22.70;13.60;;;16.30;78.70;;;;;;7374407;19;20612;-39
2022/05/06 02:36:19;;;;;;;23.20;13.90;;;16.20;78.70;;;;;;7375355;19;20455;-39
2022/05/06 02:38:51;;;;;;;17.97;13.23;;;16.20;79.20;;;;;;7363053;19;20372;-40
2022/05/06 02:41:20;;;;;;;21.23;13.53;;;16.20;79.40;;;;;;7376528;19;21164;-47
2022/05/06 02:43:58;;;;;;;18.97;13.70;;;16.20;79.10;;;;;;7373086;19;20436;-47
2022/05/06 02:46:33;;;;;;;23.10;13.50;;;16.20;79.30;;;;;;7374029;19;20922;-47
2022/05/06 02:49:06;;;;;;;16.77;11.80;;;16.30;79.00;;;;;;7374053;19;20380;-47
2022/05/06 02:51:36;;;;;;;17.77;12.67;;;16.30;79.50;;;;;;7375637;19;20436;-47
2022/05/06 02:54:07;;;;;;;20.23;13.00;;;16.40;78.50;;;;;;7369500;19;20513;-47
2022/05/06 02:56:39;;;;;;;21.80;13.30;;;16.20;78.70;;;;;;7375469;19;20978;-47
2022/05/06 02:59:12;;;;;;;21.33;13.47;;;16.30;78.90;;;;;;7372189;19;20839;-47
2022/05/06 03:01:42;;;;;;;20.40;14.27;;;16.20;79.10;;;;;;7369225;19;20376;-47
2022/05/06 03:04:14;;;;;;;22.30;14.63;;;16.20;79.40;;;;;;7372995;19;20385;-47
2022/05/06 03:06:46;;;;;;;22.50;13.70;;;16.20;79.20;;;;;;7375793;19;20400;-47
2022/05/06 03:09:28;;;;;;;16.03;12.03;;;16.20;79.20;;;;;;7366368;19;20913;-47
2022/05/06 03:12:01;;;;;;;16.37;12.10;;;16.10;79.90;;;;;;7373318;19;20364;-39
2022/05/06 03:14:34;;;;;;;18.10;12.10;;;16.10;79.90;;;;;;7375383;19;20427;-39
2022/05/06 03:17:30;;;;;;;18.17;13.20;;;16.20;79.60;;;;;;7367847;19;20421;-39
2022/05/06 03:20:04;;;;;;;19.97;12.03;;;16.10;79.30;;;;;;7366187;19;20376;-39
2022/05/06 03:22:39;;;;;;;18.23;12.73;;;16.00;80.10;;;;;;7376102;19;20756;-39
2022/05/06 03:25:13;;;;;;;19.50;12.40;;;16.10;80.20;;;;;;7373587;19;20372;-39
2022/05/06 03:30:32;;;;;;;17.57;12.00;;;16.20;79.40;;;;;;7368848;19;20375;-39
2022/05/06 03:33:11;;;;;;;18.43;13.07;;;16.30;79.30;;;;;;7371640;19;20407;-39
2022/05/06 03:35:42;;;;;;;17.30;11.73;;;16.10;79.90;;;;;;7373559;19;20395;-39
2022/05/06 03:38:14;;;;;;;18.13;11.80;;;16.10;79.90;;;;;;7367417;19;20412;-39
2022/05/06 03:40:47;;;;;;;18.20;11.87;;;16.10;79.90;;;;;;7373958;19;20813;-47
2022/05/06 03:43:19;;;;;;;16.80;11.90;;;16.20;79.70;;;;;;7366858;19;21787;-48
2022/05/06 03:45:55;;;;;;;20.33;13.40;;;16.20;79.60;;;;;;7368067;19;20385;-46
2022/05/06 03:48:27;;;;;;;18.37;13.60;;;16.10;79.90;;;;;;7362836;19;20412;-48
2022/05/06 03:53:45;;;;;;;15.30;11.97;;;16.10;80.40;;;;;;7364398;19;20393;-47
2022/05/06 03:56:14;;;;;;;16.40;12.00;;;16.00;80.50;;;;;;7374837;19;20408;-47
2022/05/06 03:58:48;;;;;;;17.17;11.83;;;16.00;80.70;;;;;;7368480;19;20804;-47
2022/05/06 04:01:22;;;;;;;22.20;12.50;;;16.10;80.80;;;;;;7367224;19;20368;-48
2022/05/06 04:03:57;;;;;;;16.30;11.53;;;16.10;81.30;;;;;;7371055;19;20638;-48
2022/05/06 04:06:35;;;;;;;16.47;12.33;;;16.20;81.70;;;;;;7366766;19;20364;-47
2022/05/06 04:09:05;;;;;;;17.10;10.90;;;16.00;83.40;;;;;;7370351;19;20814;-48
2022/05/06 04:11:39;;;;;;;16.13;11.70;;;16.10;82.60;;;;;;7375416;19;20394;-47
2022/05/06 04:14:11;;;;;;;17.17;11.30;;;16.00;83.10;;;;;;7370162;19;20429;-47
2022/05/06 04:16:47;;;;;;;17.97;12.00;;;15.90;83.30;;;;;;7366536;19;20481;-47
2022/05/06 04:19:26;;;;;;;15.40;11.03;;;15.90;84.50;;;;;;7370651;19;20423;-47
2022/05/06 04:24:53;;;;;;;18.60;11.27;;;16.00;84.00;;;;;;7373122;19;20383;-48
2022/05/06 04:27:26;;;;;;;15.97;11.17;;;16.00;82.90;;;;;;7367745;19;20970;-47
2022/05/06 04:30:00;;;;;;;15.30;11.63;;;16.10;82.80;;;;;;7373325;19;20413;-48
2022/05/06 04:32:42;;;;;;;15.20;11.77;;;16.20;82.80;;;;;;7372799;19;20376;-46
2022/05/06 04:35:16;;;;;;;14.90;11.47;;;16.20;82.70;;;;;;7373557;19;20395;-48
2022/05/06 04:37:47;;;;;;;17.20;13.20;;;16.30;82.30;;;;;;7369201;19;20420;-47
2022/05/06 04:40:20;;;;;;;23.13;16.30;;;16.30;81.90;;;;;;7370894;19;20383;-48
2022/05/06 04:42:49;;;;;;;19.57;13.73;;;16.30;82.30;;;;;;7369255;19;20373;-47
2022/05/06 04:45:23;;;;;;;16.53;12.47;;;16.20;82.40;;;;;;7370138;19;20384;-47
2022/05/06 04:48:18;;;;;;;26.73;16.60;;;16.10;82.90;;;;;;7368509;19;20920;-47
2022/05/06 04:50:50;;;;;;;15.00;12.30;;;16.20;83.90;;;;;;7371197;19;20873;-47
2022/05/06 04:53:23;;;;;;;16.73;11.97;;;16.10;83.60;;;;;;7377186;19;20440;-47
2022/05/06 04:55:55;;;;;;;16.60;12.60;;;16.10;83.80;;;;;;7380447;19;20372;-47
2022/05/06 04:58:33;;;;;;;18.80;11.97;;;16.10;84.00;;;;;;7362430;19;20387;-46
2022/05/06 05:01:06;;;;;;;14.47;11.63;;;16.00;84.00;;;;;;7358102;19;20431;-47
2022/05/06 05:03:41;;;;;;;17.80;12.57;;;16.00;84.30;;;;;;7369084;19;20398;-46
2022/05/06 05:06:15;;;;;;;20.50;13.70;;;16.00;84.70;;;;;;7361181;19;20424;-47
2022/05/06 05:08:48;;;;;;;16.70;12.73;;;16.00;84.70;;;;;;7361421;19;20960;-48
2022/05/06 05:11:19;;;;;;;17.53;12.30;;;16.00;85.10;;;;;;7374509;19;20415;-46
2022/05/06 05:13:57;;;;;;;15.30;10.33;;;16.00;85.00;;;;;;7375599;19;20383;-47
2022/05/06 05:16:36;;;;;;;17.40;12.43;;;16.00;85.20;;;;;;7372523;19;21879;-46
2022/05/06 05:19:08;;;;;;;21.00;15.27;;;15.90;85.40;;;;;;7372371;19;20452;-47
2022/05/06 05:21:43;;;;;;;29.20;20.50;;;16.10;85.20;;;;;;7371294;19;20478;-47
2022/05/06 05:24:13;;;;;;;16.90;11.93;;;16.10;84.90;;;;;;7368425;19;20435;-47
2022/05/06 05:26:45;;;;;;;20.47;12.30;;;16.20;84.60;;;;;;7367637;19;20419;-48
2022/05/06 05:29:21;;;;;;;17.03;12.43;;;16.10;84.70;;;;;;7371678;19;20404;-47
2022/05/06 05:31:53;;;;;;;21.27;12.80;;;16.20;84.60;;;;;;7374988;19;21072;-46
2022/05/06 05:34:28;;;;;;;27.87;18.10;;;16.10;85.00;;;;;;7375955;19;21021;-47
2022/05/06 05:37:01;;;;;;;24.03;14.27;;;16.20;85.40;;;;;;7370842;19;20404;-46
2022/05/06 05:39:35;;;;;;;16.07;10.93;;;16.00;85.80;;;;;;7365177;19;20380;-47
2022/05/06 05:42:08;;;;;;;18.00;14.43;;;16.10;86.80;;;;;;7372508;19;20384;-47
2022/05/06 05:50:12;;;;;;;17.10;12.53;;;15.90;87.40;;;;;;7357845;19;20431;-48
2022/05/06 05:52:42;;;;;;;15.57;11.17;;;16.10;87.90;;;;;;7362109;19;20373;-47
2022/05/06 05:55:18;;;;;;;13.87;11.07;;;15.90;88.10;;;;;;7360350;19;20400;-47
2022/05/06 05:57:53;;;;;;;13.87;10.87;;;15.90;88.80;;;;;;7371436;19;20408;-47
2022/05/06 06:00:23;;;;;;;15.93;11.30;;;15.90;88.70;;;;;;7364160;19;20416;-47
2022/05/06 06:02:59;;;;;;;16.90;12.57;;;16.00;87.30;;;;;;7359819;19;21036;-48
2022/05/06 06:05:32;;;;;;;17.90;11.80;;;15.90;87.50;;;;;;7365008;19;20778;-47
2022/05/06 06:08:02;;;;;;;16.20;11.60;;;15.90;87.70;;;;;;7362804;19;20384;-47
2022/05/06 06:10:38;;;;;;;18.83;11.87;;;16.00;87.50;;;;;;7367759;19;20716;-48
2022/05/06 06:13:11;;;;;;;14.80;11.73;;;16.00;86.30;;;;;;7372511;19;20906;-47
2022/05/06 06:15:46;;;;;;;17.10;11.53;;;15.90;86.50;;;;;;7354510;19;20383;-47
2022/05/06 06:18:20;;;;;;;14.60;11.07;;;15.90;87.50;;;;;;7365668;19;20449;-52
2022/05/06 06:20:58;;;;;;;16.07;11.67;;;15.90;87.50;;;;;;7369765;19;20383;-51
2022/05/06 06:23:33;;;;;;;15.30;10.20;;;15.80;86.70;;;;;;7373095;19;20830;-51
2022/05/06 06:26:05;;;;;;;13.23;10.67;;;15.70;87.20;;;;;;7377397;19;20383;-52
2022/05/06 06:28:38;;;;;;;19.53;10.97;;;15.60;88.30;;;;;;7354166;19;20419;-51
2022/05/06 06:31:11;;;;;;;17.00;11.00;;;15.60;88.40;;;;;;7360561;19;20910;-52
2022/05/06 06:33:41;;;;;;;20.70;11.60;;;15.70;88.50;;;;;;7365446;19;20368;-52
2022/05/06 06:36:21;;;;;;;16.70;11.73;;;15.70;87.50;;;;;;7372240;19;20408;-52
2022/05/06 06:38:55;;;;;;;15.03;9.77;;;15.60;87.00;;;;;;7370559;19;20384;-52
2022/05/06 06:41:27;;;;;;;18.53;9.83;;;15.40;86.50;;;;;;7370266;19;21025;-52
2022/05/06 06:43:58;;;;;;;13.27;10.67;;;15.40;87.40;;;;;;7378661;19;20377;-52
2022/05/06 06:46:51;;;;;;;16.73;11.43;;;15.50;87.60;;;;;;7364470;19;20428;-52
2022/05/06 06:49:31;;;;;;;14.33;10.53;;;15.50;87.90;;;;;;7364186;19;21622;-51
2022/05/06 06:52:13;;;;;;;13.30;9.20;;;15.40;87.80;;;;;;7374087;19;20384;-51
2022/05/06 06:54:45;;;;;;;16.20;10.40;;;15.60;87.60;;;;;;7375853;19;20412;-52
2022/05/06 06:57:14;;;;;;;13.90;9.53;;;15.60;86.00;;;;;;7373481;19;20380;-52
2022/05/06 06:59:44;;;;;;;11.80;8.83;;;15.70;85.50;;;;;;7367679;19;20391;-52
2022/05/06 07:02:16;;;;;;;11.90;9.37;;;15.70;85.50;;;;;;7372131;19;20368;-52
2022/05/06 07:04:45;;;;;;;13.73;9.23;;;15.70;85.50;;;;;;7371032;19;20372;-52
2022/05/06 07:12:42;;;;;;;12.17;7.70;;;15.80;81.30;;;;;;7361882;19;20368;-51
2022/05/06 07:15:12;;;;;;;12.43;9.77;;;15.70;80.90;;;;;;7365662;19;20400;-51
2022/05/06 07:17:45;;;;;;;9.33;8.43;;;15.50;81.20;;;;;;7374866;19;20380;-51
2022/05/06 07:20:17;;;;;;;13.20;10.80;;;15.50;82.90;;;;;;7361914;19;20428;-43
2022/05/06 07:22:49;;;;;;;13.70;8.93;;;15.50;82.20;;;;;;7362524;19;21621;-43
2022/05/06 07:25:19;;;;;;;10.63;8.50;;;15.50;82.00;;;;;;7368050;19;20843;-44
2022/05/06 07:27:49;;;;;;;9.77;8.00;;;15.60;81.30;;;;;;7374973;19;20368;-44
2022/05/06 07:30:18;;;;;;;9.70;7.90;;;15.70;81.80;;;;;;7370362;19;20408;-44
2022/05/06 07:32:48;;;;;;;10.60;8.40;;;15.70;81.60;;;;;;7370126;19;20415;-43
2022/05/06 07:35:17;;;;;;;18.97;9.07;;;15.60;81.80;;;;;;7364471;19;20412;-43
2022/05/06 07:37:52;;;;;;;12.80;8.50;;;15.40;82.30;;;;;;7370094;19;20744;-44
2022/05/06 07:40:21;;;;;;;9.80;8.67;;;15.60;82.90;;;;;;7372279;19;21129;-43
2022/05/06 07:42:51;;;;;;;11.47;8.73;;;15.60;83.10;;;;;;7378296;19;20530;-44
2022/05/06 07:45:23;;;;;;;13.07;7.90;;;15.60;81.40;;;;;;7378685;19;20376;-44
2022/05/06 07:47:55;;;;;;;10.93;7.80;;;15.70;81.20;;;;;;7377731;19;20904;-44
2022/05/06 07:50:29;;;;;;;10.30;8.13;;;15.70;80.70;;;;;;7375596;19;20372;-52
2022/05/06 07:53:04;;;;;;;9.43;8.27;;;15.70;80.30;;;;;;7376148;19;20434;-52
2022/05/06 07:55:36;;;;;;;14.63;7.60;;;15.70;79.60;;;;;;7378805;19;21077;-52
2022/05/06 07:58:05;;;;;;;11.90;8.60;;;15.80;79.10;;;;;;7377907;19;20371;-52
2022/05/06 08:00:35;;;;;;;11.80;7.93;;;15.80;79.10;;;;;;7375308;19;20421;-52
2022/05/06 08:05:59;;;;;;;10.17;7.07;;;16.00;78.10;;;;;;7369687;19;20829;-52
2022/05/06 08:08:32;;;;;;;10.03;8.03;;;16.00;77.40;;;;;;7377633;19;20372;-52
2022/05/06 08:11:06;;;;;;;10.77;7.37;;;16.10;77.80;;;;;;7377897;19;20372;-52
2022/05/06 08:13:39;;;;;;;8.30;7.13;;;16.10;75.90;;;;;;7377917;19;20475;-52
2022/05/06 08:16:09;;;;;;;9.20;7.17;;;16.10;76.60;;;;;;7374495;19;20495;-52
2022/05/06 08:18:39;;;;;;;11.17;7.50;;;16.10;77.30;;;;;;7372740;19;20934;-52
2022/05/06 08:21:10;;;;;;;8.70;7.70;;;16.20;76.90;;;;;;7371513;19;20786;-52
2022/05/06 08:23:43;;;;;;;10.80;8.27;;;16.30;75.80;;;;;;7373163;19;20427;-52
2022/05/06 08:26:13;;;;;;;12.00;7.70;;;16.40;75.30;;;;;;7373826;19;20441;-52
2022/05/06 08:28:42;;;;;;;9.30;7.27;;;16.20;76.20;;;;;;7376141;19;20762;-52
2022/05/06 08:31:14;;;;;;;8.37;6.87;;;16.20;75.70;;;;;;7374818;19;20462;-51
2022/05/06 08:33:44;;;;;;;10.30;7.50;;;16.30;75.10;;;;;;7376198;19;20391;-51
2022/05/06 08:36:19;;;;;;;10.93;8.03;;;16.40;75.20;;;;;;7372451;19;20741;-52
2022/05/06 08:38:53;;;;;;;8.70;7.40;;;16.60;74.00;;;;;;7376531;19;20407;-52
2022/05/06 08:41:26;;;;;;;8.63;7.33;;;16.70;73.00;;;;;;7372274;19;20387;-52
2022/05/06 08:43:56;;;;;;;10.40;8.37;;;16.80;71.90;;;;;;7374541;19;20421;-52
2022/05/06 08:51:55;;;;;;;7.80;6.67;;;16.60;73.40;;;;;;7375389;19;20380;-52
2022/05/06 08:54:30;;;;;;;9.40;6.47;;;16.60;72.70;;;;;;7374682;19;20966;-52
2022/05/06 08:57:01;;;;;;;7.63;6.57;;;16.70;71.90;;;;;;7374906;19;20404;-52
2022/05/06 08:59:30;;;;;;;9.00;7.17;;;16.80;71.40;;;;;;7377160;19;20376;-52
2022/05/06 09:02:00;;;;;;;9.57;7.10;;;16.30;70.80;;;;;;7370938;19;20408;-52
2022/05/06 09:04:32;;;;;;;8.20;6.57;;;16.20;71.90;;;;;;7374885;19;20992;-52
2022/05/06 09:07:17;;;;;;;8.60;6.50;;;16.40;71.90;;;;;;7370199;19;20386;-52
2022/05/06 09:10:16;;;;;;;10.87;7.30;;;16.60;70.60;;;;;;7376356;19;20379;-52
2022/05/06 09:12:47;;;;;;;8.30;6.53;;;16.70;70.10;;;;;;7375530;19;20368;-52
2022/05/06 09:18:02;;;;;;;12.47;7.13;;;17.00;68.60;;;;;;7374161;19;21025;-53
2022/05/06 09:20:34;;;;;;;6.63;5.93;;;17.10;68.20;;;;;;7370662;19;20384;-52
2022/05/06 09:23:24;;;;;;;10.80;6.20;;;17.20;67.60;;;;;;7372522;19;20388;-52
2022/05/06 09:25:58;;;;;;;8.70;6.50;;;17.40;67.10;;;;;;7372792;19;20398;-52
2022/05/06 09:28:31;;;;;;;7.57;6.00;;;17.30;68.20;;;;;;7369953;19;20925;-52
2022/05/06 09:31:03;;;;;;;8.53;6.83;;;17.50;68.20;;;;;;7376143;19;20381;-52
2022/05/06 09:33:34;;;;;;;8.37;6.20;;;17.70;67.50;;;;;;7371676;19;20512;-52
2022/05/06 09:36:24;;;;;;;7.50;6.43;;;17.80;65.20;;;;;;7374545;19;20508;-52
2022/05/06 09:39:05;;;;;;;8.03;6.70;;;17.90;66.00;;;;;;7376726;19;20412;-52
2022/05/06 09:41:48;;;;;;;8.03;6.40;;;17.90;64.70;;;;;;7379453;19;20392;-52
2022/05/06 09:44:23;;;;;;;7.33;6.23;;;17.80;66.30;;;;;;7381591;19;20376;-53
2022/05/06 09:47:11;;;;;;;7.47;6.23;;;17.80;65.30;;;;;;7380158;19;21016;-51
2022/05/06 09:49:43;;;;;;;8.23;6.67;;;17.90;64.40;;;;;;7381035;19;20400;-52
2022/05/06 09:52:17;;;;;;;7.97;6.27;;;17.70;65.00;;;;;;7380677;19;20375;-52
2022/05/06 09:54:48;;;;;;;7.30;6.10;;;17.80;66.20;;;;;;7381874;19;20391;-52
2022/05/06 09:57:25;;;;;;;8.87;5.90;;;18.00;65.40;;;;;;7381115;19;20371;-52
2022/05/06 09:59:57;;;;;;;8.57;6.40;;;18.20;64.50;;;;;;7381420;19;20376;-44
2022/05/06 10:02:29;;;;;;;9.50;6.07;;;18.30;64.90;;;;;;7377210;19;20425;-44
2022/05/06 10:05:01;;;;;;;7.27;6.53;;;18.50;63.00;;;;;;7381417;19;20384;-44
2022/05/06 10:07:31;;;;;;;7.73;6.00;;;18.40;61.40;;;;;;7379673;19;20371;-44
2022/05/06 10:10:04;;;;;;;9.97;7.20;;;18.50;63.10;;;;;;7377502;19;20528;-46
2022/05/06 10:12:45;;;;;;;8.63;7.00;;;18.70;61.60;;;;;;7379030;19;20428;-44
2022/05/06 10:15:17;;;;;;;8.60;6.37;;;19.00;61.10;;;;;;7378391;19;20373;-44
2022/05/06 10:17:54;;;;;;;11.70;7.07;;;19.30;60.00;;;;;;7378538;19;20946;-44
2022/05/06 10:20:50;;;;;;;8.13;6.30;;;19.60;59.20;;;;;;7379855;19;20376;-44
2022/05/06 10:23:24;;;;;;;9.43;7.40;;;19.90;58.50;;;;;;7376234;19;20392;-44
2022/05/06 10:25:57;;;;;;;11.80;7.17;;;20.10;57.30;;;;;;7377389;19;20372;-44
2022/05/06 10:34:27;;;;;;;6.50;5.87;;;22.60;53.00;;;;;;7379264;19;20408;-51
2022/05/06 10:36:58;;;;;;;10.33;7.00;;;22.70;52.40;;;;;;7378862;19;20379;-51
2022/05/06 10:39:36;;;;;;;12.60;7.73;;;23.00;51.60;;;;;;7379724;19;20401;-50
2022/05/06 10:42:10;;;;;;;7.93;6.70;;;23.10;49.80;;;;;;7378094;19;20379;-50
2022/05/06 10:44:44;;;;;;;8.00;6.70;;;23.50;50.00;;;;;;7379863;19;20408;-53
2022/05/06 10:47:49;;;;;;;9.07;7.50;;;24.40;47.20;;;;;;7374865;19;20404;-51
2022/05/06 10:50:24;;;;;;;10.90;8.03;;;24.70;46.20;;;;;;7377802;19;20404;-51
2022/05/06 10:52:56;;;;;;;9.33;7.53;;;24.40;46.20;;;;;;7380557;19;20388;-51
2022/05/06 10:55:31;;;;;;;9.07;6.07;;;24.20;47.00;;;;;;7379409;19;20384;-51
2022/05/06 10:58:06;;;;;;;7.93;6.13;;;24.40;45.70;;;;;;7380066;19;20416;-53
2022/05/06 11:00:43;;;;;;;6.37;5.23;;;24.30;46.10;;;;;;7379416;19;20424;-50
2022/05/06 11:03:23;;;;;;;8.73;5.60;;;24.30;46.10;;;;;;7377117;19;20395;-51
2022/05/06 11:05:56;;;;;;;9.73;6.23;;;24.40;45.30;;;;;;7377496;19;20861;-53
2022/05/06 11:08:35;;;;;;;7.70;6.30;;;24.60;45.10;;;;;;7379106;19;20372;-53
2022/05/06 11:11:17;;;;;;;6.87;5.90;;;24.90;42.70;;;;;;7379899;19;20375;-53
2022/05/06 11:13:47;;;;;;;9.73;5.20;;;25.10;42.50;;;;;;7378176;19;20376;-51
2022/05/06 11:16:19;;;;;;;8.40;7.23;;;25.50;42.30;;;;;;7375105;19;20373;-51
2022/05/06 11:18:49;;;;;;;7.27;5.93;;;25.90;42.40;;;;;;7375150;19;20412;-51
2022/05/06 11:21:23;;;;;;;6.50;5.00;;;26.50;40.30;;;;;;7375831;19;20423;-51
2022/05/06 11:23:55;;;;;;;5.47;4.60;;;26.90;38.80;;;;;;7374395;19;20419;-51
2022/05/06 11:26:30;;;;;;;9.83;4.70;;;27.30;38.80;;;;;;7375855;19;20441;-52
2022/05/06 11:29:05;;;;;;;5.93;4.30;;;27.40;37.30;;;;;;7378473;19;20408;-52
2022/05/06 11:31:39;;;;;;;8.67;4.20;;;27.70;36.70;;;;;;7376908;19;20870;-52
2022/05/06 11:34:12;;;;;;;5.03;4.00;;;28.00;36.20;;;;;;7373336;19;20407;-52
2022/05/06 11:36:50;;;;;;;8.73;4.43;;;28.00;36.00;;;;;;7376201;19;20406;-52
2022/05/06 11:39:19;;;;;;;5.60;4.13;;;27.70;36.00;;;;;;7375833;19;20511;-52
2022/05/06 11:41:49;;;;;;;5.30;4.57;;;27.30;36.20;;;;;;7373647;19;20918;-52
2022/05/06 11:47:27;;;;;;;7.03;5.00;;;27.60;36.20;;;;;;7362617;19;20420;-50
2022/05/06 11:47:31;;;;;;;5.00;4.10;;;27.30;36.40;;;;;;7373825;19;20474;-49
2022/05/06 11:50:01;;;;;;;5.33;3.80;;;26.90;37.70;;;;;;7369044;19;20963;-49
2022/05/06 11:52:30;;;;;;;5.83;5.00;;;27.00;36.90;;;;;;7372077;19;20427;-50
2022/05/06 11:55:00;;;;;;;6.27;4.70;;;26.60;37.00;;;;;;7374441;19;20381;-49
2022/05/06 11:57:31;;;;;;;6.10;4.03;;;26.10;38.60;;;;;;7370813;19;20874;-49
2022/05/06 12:00:01;;;;;;;6.37;4.90;;;25.60;38.20;;;;;;7369832;19;20729;-50
2022/05/06 12:02:33;;;;;;;5.40;4.60;;;25.20;40.00;;;;;;7373778;19;20910;-49
2022/05/06 12:05:03;;;;;;;6.33;4.83;;;24.80;40.10;;;;;;7372495;19;20380;-49
2022/05/06 12:07:44;;;;;;;6.07;4.13;;;24.40;40.40;;;;;;7364656;19;21196;-49
2022/05/06 12:10:26;;;;;;;7.37;4.30;;;23.80;41.60;;;;;;7361305;19;20368;-50
2022/05/06 12:12:57;;;;;;;5.40;4.17;;;23.70;42.40;;;;;;7372472;19;20422;-50
2022/05/06 12:15:32;;;;;;;5.70;4.30;;;23.70;43.00;;;;;;7363772;19;20379;-50
2022/05/06 12:18:12;;;;;;;6.77;4.80;;;23.80;42.80;;;;;;7366776;19;21005;-50
2022/05/06 12:20:43;;;;;;;5.90;4.87;;;24.00;41.30;;;;;;7367716;19;20365;-49
2022/05/06 12:23:17;;;;;;;5.77;5.10;;;23.60;40.90;;;;;;7370173;19;20404;-49
2022/05/06 12:25:56;;;;;;;5.00;4.40;;;23.30;42.10;;;;;;7372137;19;20376;-49
2022/05/06 12:28:31;;;;;;;9.40;5.73;;;23.10;41.80;;;;;;7370513;19;20417;-49
2022/05/06 12:31:02;;;;;;;5.40;4.30;;;22.60;43.70;;;;;;7367943;19;20380;-41
2022/05/06 12:33:45;;;;;;;6.27;4.77;;;22.40;43.70;;;;;;7369995;19;20378;-41
2022/05/06 12:36:21;;;;;;;6.83;5.20;;;22.60;43.10;;;;;;7371706;19;20372;-41
2022/05/06 12:38:51;;;;;;;7.00;4.80;;;22.80;42.30;;;;;;7370693;19;20384;-41
2022/05/06 12:41:22;;;;;;;8.60;5.17;;;22.50;43.20;;;;;;7367181;19;20372;-41
2022/05/06 12:43:57;;;;;;;6.17;5.07;;;22.50;43.40;;;;;;7360965;19;20428;-41
2022/05/06 12:46:28;;;;;;;6.40;5.13;;;22.20;43.70;;;;;;7367198;19;22483;-41
2022/05/06 12:51:44;;;;;;;10.37;5.33;;;21.90;44.80;;;;;;7370687;19;20379;-41
2022/05/06 12:54:16;;;;;;;6.40;5.10;;;22.20;44.90;;;;;;7369882;19;20908;-41
2022/05/06 12:56:46;;;;;;;5.60;4.30;;;22.10;45.10;;;;;;7366767;19;20388;-41
2022/05/06 12:59:16;;;;;;;4.97;4.40;;;22.20;45.30;;;;;;7372194;19;20390;-41
2022/05/06 13:01:46;;;;;;;4.90;4.40;;;22.50;45.10;;;;;;7369756;19;20368;-50
2022/05/06 13:04:21;;;;;;;7.53;5.20;;;22.70;42.70;;;;;;7367355;19;20384;-50
2022/05/06 13:06:53;;;;;;;5.83;4.43;;;22.60;43.40;;;;;;7369065;19;20380;-50
2022/05/06 13:09:25;;;;;;;4.37;3.80;;;22.60;43.10;;;;;;7371532;19;21064;-49
2022/05/06 13:11:55;;;;;;;8.60;4.97;;;23.00;43.10;;;;;;7366894;19;20914;-50
2022/05/06 13:14:24;;;;;;;15.80;5.60;;;23.40;43.20;;;;;;7377567;19;20389;-49
2022/05/06 13:16:55;;;;;;;5.37;4.57;;;23.50;42.80;;;;;;7352680;19;20843;-50
2022/05/06 13:19:32;;;;;;;5.60;4.47;;;23.40;43.40;;;;;;7374670;19;20829;-50
2022/05/06 13:22:07;;;;;;;7.50;4.40;;;23.40;43.70;;;;;;7372413;19;20961;-50
2022/05/06 13:24:38;;;;;;;8.87;4.17;;;23.40;43.70;;;;;;7372538;19;20388;-50
2022/05/06 13:27:08;;;;;;;5.70;4.40;;;23.30;43.10;;;;;;7380704;19;20749;-50
2022/05/06 13:29:38;;;;;;;6.53;5.00;;;23.20;43.00;;;;;;7369313;19;20380;-50
2022/05/06 13:32:08;;;;;;;5.57;3.93;;;23.00;43.40;;;;;;7369675;19;20978;-41
2022/05/06 13:34:42;;;;;;;5.50;4.40;;;22.80;44.90;;;;;;7373759;19;21353;-41
2022/05/06 13:37:12;;;;;;;5.13;3.77;;;22.60;44.20;;;;;;7374365;19;20384;-41
2022/05/06 13:39:41;;;;;;;5.00;4.50;;;22.50;44.40;;;;;;7376893;19;20381;-41
2022/05/06 13:42:11;;;;;;;4.60;4.00;;;22.20;44.70;;;;;;7376926;19;20403;-41
2022/05/06 13:44:43;;;;;;;8.10;4.37;;;22.20;45.20;;;;;;7375492;19;20885;-41
2022/05/06 13:47:13;;;;;;;4.67;4.17;;;22.30;46.50;;;;;;7378055;19;20361;-41
2022/05/06 13:49:49;;;;;;;5.87;4.10;;;22.30;46.50;;;;;;7374899;19;20781;-41
2022/05/06 13:52:18;;;;;;;5.53;4.10;;;22.20;46.30;;;;;;7366791;19;20375;-41
2022/05/06 13:54:48;;;;;;;6.67;4.33;;;22.10;46.40;;;;;;7373193;19;20792;-41